Laurel, Delaware
Current Conditions -  °F | °C
As of 10:54 AM on Saturday 20 Dec 2014 (Local Time) from KGED Reporting Station
Clear Clear  
Wind Chill: 35°   Ceiling: Unl
Heat Index: 35°   Visibility: 10mi
Dew Point: 25°   Wind: 3mph
Humidity: 67%   Direction: 300°WNW
Pressure: 30.31"   Gusts: NA
Location:  38.56°N, 75.57°W
Report Text: KGED 201554Z AUTO 30003KT 10SM CLR 02/M04 A3031 RMK AO2 SLP265 T00171039
Loading
Personal Weather Stations






























Interactive Weather Map New forecast layout! Learn more

10-Day Weather Forecast

Advertisements
Track Severe Weather on mobile